Friday, October 20, 2017, 9:27 PM EDT
Back to Local

KFWN, Sussex Airport

Location: Sussex, NJ, United States Lat: 41.2
Local Time: 9:27 PM EDT ( 1:27 GMT) Lon: -74.633
Time Zone: US/Eastern Elev: 419 ft

Show me the last for .
Show Coded

Time T Td Feel RH Dir Speed Gust Alt SLP Vis Weather Sky Remarks
2017-10-20 20:53 50 42 - 74 - Calm - 30.20 30.20 10 CLR None
2017-10-20 19:53 54 41 - 61 - Calm - 30.18 30.19 10 CLR 6-hr Min Temp (8pm): 54.0°F
6-hr Max Temp (8pm): 72.0°F
2017-10-20 18:53 60 40 - 47 - Calm - 30.17 30.17 10 CLR None
2017-10-20 17:53 68 35 - 29 - Calm - 30.15 30.15 10 CLR None
2017-10-20 16:53 71 35 - 26 290° 8 - 30.14 30.13 10 CLR None
2017-10-20 15:53 71 35 - 26 Variable 7 17 30.14 30.14 10 CLR None
2017-10-20 14:53 71 34 - 25 330° 9 - 30.13 30.13 10 CLR None
2017-10-20 13:53 71 30 - 21 330° 10 20 30.14 30.13 10 CLR 6-hr Precip Total (2pm): 0.00"
6-hr Min Temp (2pm): 39.9°F
6-hr Max Temp (2pm): 71.1°F
2017-10-20 12:53 69 28 - 21 340° 10 22 30.15 30.15 10 CLR None
2017-10-20 11:53 67 36 - 31 Variable 7 - 30.18 30.18 10 CLR None
2017-10-20 10:53 63 40 - 42 Variable 5 - 30.19 30.19 10 CLR 6-hr Precip Total (11am): 0.00"
2017-10-20 09:53 59 46 - 62 Variable 3 - 30.20 30.20 10 CLR 1-hr Precip Total: Trace
2017-10-20 08:53 48 47 - 96 - Calm - 30.19 30.19 10 CLR None
2017-10-20 07:53 41 41 - 100 - Calm - 30.17 30.17 10 CLR 6-hr Min Temp (8am): 39.9°F
6-hr Max Temp (8am): 48.9°F
2017-10-20 06:53 41 40 - 95 - Calm - 30.15 30.15 5 BR CLR None
2017-10-20 05:53 42 41 - 95 - Calm - 30.14 30.14 10 CLR None
2017-10-20 05:28 42 41 - 95 - Calm - 30.13 - 9 CLR None
2017-10-20 05:20 41 41 - 100 - Calm - 30.13 - 2 BR CLR None
2017-10-20 04:53 44 43 43 95 250° 3 - 30.11 30.11 10 CLR None
2017-10-20 03:53 45 44 - 96 - Calm - 30.10 30.10 10 CLR None
2017-10-20 02:53 46 45 - 95 - Calm - 30.10 30.09 10 CLR None
2017-10-20 01:53 49 46 - 89 - Calm - 30.10 30.09 10 CLR 6-hr Min Temp (2am): 46.9°F
6-hr Max Temp (2am): 57.0°F
2017-10-20 00:53 48 46 - 92 - Calm - 30.09 30.09 10 CLR 24-hr Min Temp (1am): 39.9°F
24-hr Max Temp (1am): 71.1°F
2017-10-19 23:53 48 45 - 89 - Calm - 30.09 30.08 10 CLR None
2017-10-19 22:53 49 45 - 86 - Calm - 30.09 30.09 10 CLR None
2017-10-19 21:53 50 46 - 86 - Calm - 30.09 30.09 10 CLR None

Support USWX by starting your Amazon purchase here.